createdAt,value
2024-05-09T00:00:39.312Z,8.63
2024-05-09T00:03:11.929Z,8.53
2024-05-09T00:05:41.555Z,8.10
2024-05-09T00:08:09.650Z,8.83
2024-05-09T00:10:39.475Z,8.30
2024-05-09T00:13:08.711Z,8.63
2024-05-09T00:15:36.767Z,8.83
2024-05-09T00:18:05.842Z,7.90
2024-05-09T00:20:39.178Z,8.40
2024-05-09T00:23:12.409Z,8.90
2024-05-09T00:25:40.770Z,8.43
2024-05-09T00:28:08.229Z,8.20
2024-05-09T00:30:37.110Z,8.50
2024-05-09T00:33:06.605Z,7.77
2024-05-09T00:35:47.466Z,8.70
2024-05-09T00:38:38.743Z,8.67
2024-05-09T00:41:08.956Z,10.00
2024-05-09T00:43:36.381Z,9.40
2024-05-09T00:46:03.873Z,10.33
2024-05-09T00:48:31.944Z,9.63
2024-05-09T00:50:59.667Z,10.60
2024-05-09T00:56:12.638Z,10.73
2024-05-09T00:58:40.357Z,9.37
2024-05-09T01:01:08.645Z,10.90
2024-05-09T01:03:46.471Z,10.20
2024-05-09T01:09:26.492Z,9.30
2024-05-09T01:11:56.833Z,9.97
2024-05-09T01:14:24.630Z,9.70
2024-05-09T01:16:52.394Z,9.17
2024-05-09T01:19:23.749Z,9.87
2024-05-09T01:21:51.295Z,11.50
2024-05-09T01:24:21.410Z,11.03
2024-05-09T01:26:48.863Z,11.63
2024-05-09T01:29:16.458Z,10.77
2024-05-09T01:31:45.167Z,10.60
2024-05-09T01:34:36.627Z,10.43
2024-05-09T01:40:24.911Z,11.47
2024-05-09T01:43:00.217Z,11.70
2024-05-09T01:45:27.706Z,10.80
2024-05-09T01:47:55.420Z,11.70
2024-05-09T01:50:34.166Z,11.37
2024-05-09T01:53:06.724Z,11.13
2024-05-09T01:55:36.961Z,11.53
2024-05-09T01:58:04.555Z,10.57
2024-05-09T02:00:38.884Z,12.60
2024-05-09T02:03:27.760Z,11.77
2024-05-09T02:06:15.458Z,11.87
2024-05-09T02:08:48.512Z,12.67
2024-05-09T02:11:18.909Z,11.93
2024-05-09T02:13:46.463Z,12.47
2024-05-09T02:16:14.115Z,12.50
2024-05-09T02:18:41.820Z,13.33
2024-05-09T02:21:09.637Z,12.60
2024-05-09T02:23:46.537Z,12.73
2024-05-09T02:26:14.153Z,14.40
2024-05-09T02:28:44.466Z,13.63
2024-05-09T02:31:13.218Z,12.87
2024-05-09T02:40:07.109Z,14.17
2024-05-09T02:42:36.719Z,12.93
2024-05-09T02:45:07.690Z,13.37
2024-05-09T02:47:35.351Z,14.07
2024-05-09T02:50:03.655Z,12.73
2024-05-09T02:52:37.436Z,13.90
2024-05-09T02:55:05.235Z,14.20
2024-05-09T02:57:32.775Z,13.53
2024-05-09T03:00:00.223Z,12.90
2024-05-09T03:02:39.354Z,14.03
2024-05-09T03:05:25.349Z,13.80
2024-05-09T03:11:03.555Z,13.67
2024-05-09T03:13:31.109Z,14.00
2024-05-09T03:16:00.209Z,13.97
2024-05-09T03:18:30.438Z,13.97
2024-05-09T03:20:57.996Z,14.83
2024-05-09T03:23:25.493Z,14.97
2024-05-09T03:25:53.011Z,15.00
2024-05-09T03:28:20.500Z,14.37
2024-05-09T03:30:47.948Z,13.87
2024-05-09T03:33:30.609Z,15.07
2024-05-09T03:39:10.078Z,15.73
2024-05-09T03:41:37.689Z,15.13
2024-05-09T03:44:05.247Z,15.23
2024-05-09T03:46:32.755Z,15.13
2024-05-09T03:49:02.932Z,14.57
2024-05-09T03:54:19.546Z,14.73
2024-05-09T03:56:47.017Z,14.73
2024-05-09T03:59:14.666Z,14.37
2024-05-09T04:01:47.096Z,14.80
2024-05-09T04:04:32.813Z,12.63
2024-05-09T04:07:20.461Z,13.80
2024-05-09T04:09:47.987Z,14.10
2024-05-09T04:12:15.625Z,13.80
2024-05-09T04:14:43.163Z,15.37
2024-05-09T04:17:10.697Z,14.03
2024-05-09T04:19:40.991Z,15.70
2024-05-09T04:22:08.719Z,15.13
2024-05-09T04:24:37.391Z,14.97
2024-05-09T04:27:05.085Z,14.40
2024-05-09T04:29:32.680Z,15.47
2024-05-09T04:38:07.646Z,14.70
2024-05-09T04:40:36.969Z,14.17
2024-05-09T04:43:05.488Z,14.73
2024-05-09T04:45:33.393Z,15.63
2024-05-09T04:48:01.578Z,15.87
2024-05-09T04:53:21.181Z,15.27
2024-05-09T04:55:48.731Z,16.03
2024-05-09T04:58:16.247Z,16.03
2024-05-09T05:00:43.914Z,15.20
2024-05-09T05:03:14.618Z,15.00
2024-05-09T05:05:45.118Z,16.20
2024-05-09T05:11:54.677Z,14.53
2024-05-09T05:14:22.242Z,16.23
2024-05-09T05:16:49.772Z,15.70
2024-05-09T05:19:17.835Z,16.53
2024-05-09T05:21:48.662Z,16.00
2024-05-09T05:24:16.166Z,20.13
2024-05-09T05:26:43.641Z,16.63
2024-05-09T05:29:13.831Z,16.90
2024-05-09T05:31:41.602Z,17.33
2024-05-09T05:34:09.194Z,18.03
2024-05-09T05:36:36.694Z,19.63
2024-05-09T05:39:04.277Z,18.57
2024-05-09T05:41:31.826Z,18.63
2024-05-09T05:43:59.376Z,19.53
2024-05-09T05:46:29.585Z,19.37
2024-05-09T05:48:57.346Z,20.10
2024-05-09T05:51:24.933Z,18.80
2024-05-09T05:53:52.499Z,19.57
2024-05-09T05:56:19.989Z,18.83
2024-05-09T05:58:48.767Z,17.93
2024-05-09T06:01:16.303Z,17.70
2024-05-09T06:03:46.830Z,16.83
2024-05-09T06:06:14.757Z,17.83
2024-05-09T06:08:42.391Z,8.00
2024-05-09T06:11:10.036Z,12.70
2024-05-09T06:13:37.570Z,15.67
2024-05-09T06:16:05.314Z,15.13
2024-05-09T06:18:32.907Z,11.20
2024-05-09T06:21:03.250Z,10.33
2024-05-09T06:23:30.792Z,9.20
2024-05-09T06:25:58.348Z,11.17
2024-05-09T06:28:25.865Z,12.90
2024-05-09T06:30:53.420Z,17.40
2024-05-09T06:33:21.024Z,17.37
2024-05-09T06:35:48.897Z,18.30
2024-05-09T06:38:19.393Z,14.93
2024-05-09T06:40:46.927Z,13.17
2024-05-09T06:43:15.564Z,16.00
2024-05-09T06:45:45.000Z,9.13
2024-05-09T06:48:12.705Z,14.63
2024-05-09T06:50:40.624Z,6.80
2024-05-09T06:53:08.681Z,16.00
2024-05-09T06:55:39.079Z,14.33
2024-05-09T06:58:07.163Z,11.67
2024-05-09T07:00:39.206Z,10.50
2024-05-09T07:03:09.300Z,15.03
2024-05-09T07:05:37.316Z,14.27
2024-05-09T07:08:05.371Z,15.47
2024-05-09T07:10:35.432Z,23.83
2024-05-09T07:13:08.245Z,21.13
2024-05-09T07:15:35.687Z,20.93
2024-05-09T07:18:08.292Z,19.17
2024-05-09T07:20:35.920Z,16.70
2024-05-09T07:23:03.726Z,17.63
2024-05-09T07:25:31.301Z,18.83
2024-05-09T07:27:59.718Z,16.03
2024-05-09T07:30:33.521Z,18.57
2024-05-09T07:33:02.906Z,19.63
2024-05-09T07:35:31.516Z,18.77
2024-05-09T07:37:59.857Z,17.10
2024-05-09T07:40:35.003Z,16.47
2024-05-09T07:43:04.451Z,14.80
2024-05-09T07:52:24.163Z,16.27
2024-05-09T07:53:39.559Z,18.83
2024-05-09T07:56:11.972Z,17.03
2024-05-09T07:58:39.961Z,17.13
2024-05-09T08:01:10.367Z,18.33
2024-05-09T08:03:38.561Z,17.30
2024-05-09T08:06:11.852Z,17.17
2024-05-09T08:08:39.333Z,13.23
2024-05-09T08:11:06.943Z,16.67
2024-05-09T08:13:34.557Z,15.40
2024-05-09T08:16:33.234Z,12.87
2024-05-09T08:22:44.954Z,15.73
2024-05-09T08:25:13.985Z,14.03
2024-05-09T08:27:41.733Z,15.97
2024-05-09T08:30:15.587Z,15.43
2024-05-09T08:32:49.311Z,17.00
2024-05-09T08:38:01.982Z,16.70
2024-05-09T08:40:34.589Z,13.63
2024-05-09T08:43:06.466Z,16.50
2024-05-09T08:45:33.980Z,14.17
2024-05-09T08:48:01.696Z,19.27
2024-05-09T08:57:33.319Z,18.50
2024-05-09T09:00:04.871Z,20.17
2024-05-09T09:02:33.818Z,16.90
2024-05-09T09:05:23.170Z,21.97
2024-05-09T09:07:51.009Z,20.33
2024-05-09T09:10:28.972Z,23.07
2024-05-09T09:13:02.246Z,19.00
2024-05-09T09:15:29.843Z,20.30
2024-05-09T09:17:58.125Z,22.53
2024-05-09T09:23:14.817Z,23.50
2024-05-09T09:25:42.413Z,23.33
2024-05-09T09:28:12.905Z,19.97
2024-05-09T09:34:42.494Z,25.77
2024-05-09T09:37:10.592Z,20.87
2024-05-09T09:39:40.087Z,20.37
2024-05-09T09:42:07.550Z,20.03
2024-05-09T09:44:42.047Z,16.27
2024-05-09T09:47:10.350Z,16.07
2024-05-09T09:49:38.184Z,14.03
2024-05-09T09:52:08.440Z,19.07
2024-05-09T09:54:38.463Z,19.43
2024-05-09T09:57:06.305Z,15.73
2024-05-09T09:59:35.639Z,20.13
2024-05-09T10:02:06.211Z,18.60
2024-05-09T10:04:34.027Z,19.50
2024-05-09T10:07:03.817Z,18.23
2024-05-09T10:09:33.151Z,16.47
2024-05-09T10:12:09.665Z,20.97
2024-05-09T10:14:40.960Z,18.23
2024-05-09T10:17:11.079Z,14.53
2024-05-09T10:19:38.614Z,18.83
2024-05-09T10:22:06.217Z,16.93
2024-05-09T10:24:49.578Z,19.73
2024-05-09T10:27:17.121Z,19.93
2024-05-09T10:29:54.429Z,19.03
2024-05-09T10:32:24.707Z,18.53
2024-05-09T10:35:01.920Z,20.97
2024-05-09T10:37:29.844Z,19.73
2024-05-09T10:39:58.172Z,24.47
2024-05-09T10:42:25.679Z,18.60
2024-05-09T10:44:53.275Z,19.00
2024-05-09T10:47:21.184Z,14.87
2024-05-09T10:52:45.495Z,15.53
2024-05-09T10:55:12.980Z,17.10
2024-05-09T10:57:40.463Z,17.73
2024-05-09T11:00:15.613Z,17.30
2024-05-09T11:02:48.315Z,17.10
2024-05-09T11:05:37.796Z,16.63
2024-05-09T11:11:57.747Z,14.80
2024-05-09T11:14:25.226Z,16.27
2024-05-09T11:16:59.026Z,17.57
2024-05-09T11:19:30.635Z,17.50
2024-05-09T11:21:58.738Z,17.20
2024-05-09T11:24:26.316Z,17.07
2024-05-09T11:26:57.344Z,16.03
2024-05-09T11:29:26.289Z,18.83
2024-05-09T11:31:53.884Z,18.50
2024-05-09T11:34:21.393Z,19.43
2024-05-09T11:36:49.003Z,19.00
2024-05-09T11:39:16.565Z,18.47
2024-05-09T11:41:44.991Z,16.90
2024-05-09T11:44:15.059Z,19.67
2024-05-09T11:46:58.025Z,17.13
2024-05-09T11:49:44.870Z,21.13
2024-05-09T11:52:12.457Z,18.20
2024-05-09T11:54:39.991Z,19.13
2024-05-09T11:57:07.431Z,21.53
2024-05-09T11:59:37.501Z,21.97
2024-05-09T12:02:05.247Z,23.73
2024-05-09T12:07:21.830Z,21.63
2024-05-09T12:09:49.328Z,20.50
2024-05-09T12:12:16.823Z,23.03
2024-05-09T12:14:46.993Z,23.27
2024-05-09T12:17:14.716Z,19.77
2024-05-09T12:19:42.950Z,24.33
2024-05-09T12:22:10.470Z,23.33
2024-05-09T12:24:40.933Z,23.17
2024-05-09T12:27:08.425Z,22.97
2024-05-09T12:29:38.671Z,18.60
2024-05-09T12:32:09.345Z,22.60
2024-05-09T12:34:37.016Z,23.10
2024-05-09T12:37:04.697Z,23.67
2024-05-09T12:39:32.220Z,22.47
2024-05-09T12:41:59.643Z,22.13
2024-05-09T12:44:27.140Z,22.43
2024-05-09T12:46:54.638Z,22.67
2024-05-09T12:49:25.031Z,23.80
2024-05-09T12:51:52.692Z,22.30
2024-05-09T12:54:25.315Z,23.70
2024-05-09T12:56:52.795Z,23.67
2024-05-09T12:59:20.224Z,22.87
2024-05-09T13:02:06.003Z,23.73
2024-05-09T13:04:36.308Z,20.63
2024-05-09T13:07:06.388Z,24.87
2024-05-09T13:09:40.631Z,21.83
2024-05-09T13:12:08.321Z,21.57
2024-05-09T13:14:35.734Z,23.10
2024-05-09T13:17:03.276Z,24.67
2024-05-09T13:19:42.500Z,21.90
2024-05-09T13:25:44.915Z,22.30
2024-05-09T13:28:12.397Z,24.20
2024-05-09T13:30:41.927Z,16.97
2024-05-09T13:33:11.279Z,21.80
2024-05-09T13:35:47.116Z,22.53
2024-05-09T13:41:13.879Z,21.23
2024-05-09T13:43:41.330Z,19.10
2024-05-09T13:46:08.842Z,19.47
2024-05-09T13:48:36.496Z,21.67
2024-05-09T13:51:06.766Z,21.57
2024-05-09T13:53:34.284Z,19.87
2024-05-09T13:56:01.838Z,19.23
2024-05-09T13:58:29.319Z,19.57
2024-05-09T14:00:57.010Z,21.40
2024-05-09T14:03:24.654Z,20.93
2024-05-09T14:05:52.579Z,14.07
2024-05-09T14:08:29.713Z,14.50
2024-05-09T14:10:57.208Z,18.30
2024-05-09T14:13:24.737Z,14.90
2024-05-09T14:15:52.492Z,12.33
2024-05-09T14:18:20.154Z,15.97
2024-05-09T14:20:47.646Z,12.23
2024-05-09T14:23:15.427Z,11.17
2024-05-09T14:25:52.365Z,14.73
2024-05-09T14:28:20.535Z,14.10
2024-05-09T14:30:48.173Z,13.10
2024-05-09T14:33:15.941Z,13.60
2024-05-09T14:35:52.834Z,14.77
2024-05-09T14:38:29.449Z,15.10
2024-05-09T14:40:59.599Z,12.90
2024-05-09T14:43:27.198Z,13.27
2024-05-09T14:46:04.099Z,12.80
2024-05-09T14:48:31.837Z,12.37
2024-05-09T14:50:59.361Z,14.40
2024-05-09T14:53:26.780Z,14.53
2024-05-09T14:55:54.578Z,14.97
2024-05-09T14:58:24.874Z,15.60
2024-05-09T15:00:52.691Z,15.27
2024-05-09T15:03:21.351Z,13.40
2024-05-09T15:05:49.974Z,14.73
2024-05-09T15:08:18.674Z,12.77
2024-05-09T15:10:46.824Z,13.77
2024-05-09T15:13:19.688Z,13.27
2024-05-09T15:15:50.414Z,11.97
2024-05-09T15:18:18.279Z,12.27
2024-05-09T15:20:46.248Z,11.50
2024-05-09T15:23:13.851Z,12.70
2024-05-09T15:25:41.548Z,11.33
2024-05-09T15:28:09.240Z,10.10
2024-05-09T15:30:37.363Z,10.43
2024-05-09T15:33:08.251Z,10.47
2024-05-09T15:35:36.325Z,9.70
2024-05-09T15:38:04.551Z,11.90
2024-05-09T15:40:39.011Z,11.90
2024-05-09T15:43:20.502Z,10.70
2024-05-09T15:45:48.009Z,11.43
2024-05-09T15:48:18.383Z,8.87
2024-05-09T15:50:46.040Z,8.43
2024-05-09T15:53:13.854Z,7.10
2024-05-09T15:55:41.846Z,7.77
2024-05-09T15:58:18.808Z,8.30
2024-05-09T16:00:48.671Z,8.00
2024-05-09T16:03:20.546Z,8.13
2024-05-09T16:05:48.421Z,7.97
2024-05-09T16:08:34.952Z,7.63
2024-05-09T16:11:24.451Z,7.43
2024-05-09T16:13:57.241Z,7.13
2024-05-09T16:16:24.811Z,7.73
2024-05-09T16:18:55.343Z,7.60
2024-05-09T16:21:22.742Z,7.80
2024-05-09T16:23:50.260Z,8.57
2024-05-09T16:26:17.724Z,7.80
2024-05-09T16:28:45.342Z,9.23
2024-05-09T16:31:12.814Z,8.23
2024-05-09T16:33:40.498Z,7.90
2024-05-09T16:36:11.148Z,7.20
2024-05-09T16:38:38.571Z,7.97
2024-05-09T16:41:06.024Z,8.27
2024-05-09T16:43:33.666Z,7.70
2024-05-09T16:46:01.263Z,8.60
2024-05-09T16:48:33.830Z,8.23
2024-05-09T16:51:01.413Z,9.17
2024-05-09T16:53:31.437Z,8.87
2024-05-09T16:55:58.988Z,10.00
2024-05-09T16:58:26.547Z,9.17
2024-05-09T17:00:54.343Z,9.50
2024-05-09T17:03:22.005Z,8.97
2024-05-09T17:05:49.754Z,8.93
2024-05-09T17:08:17.485Z,8.83
2024-05-09T17:10:49.197Z,9.53
2024-05-09T17:13:17.547Z,9.53
2024-05-09T17:15:45.789Z,10.57
2024-05-09T17:18:31.579Z,9.50
2024-05-09T17:21:05.631Z,10.17
2024-05-09T17:23:35.048Z,8.77
2024-05-09T17:26:05.499Z,9.30
2024-05-09T17:28:32.937Z,8.90
2024-05-09T17:31:00.501Z,7.57
2024-05-09T17:33:33.173Z,7.37
2024-05-09T17:36:00.778Z,8.67
2024-05-09T17:38:28.239Z,8.73
2024-05-09T17:40:55.858Z,8.53
2024-05-09T17:43:26.099Z,8.27
2024-05-09T17:45:53.659Z,8.43
2024-05-09T17:48:30.332Z,7.80
2024-05-09T17:50:57.922Z,8.57
2024-05-09T17:53:25.389Z,8.80
2024-05-09T17:55:52.829Z,8.70
2024-05-09T17:58:39.984Z,8.17
2024-05-09T18:01:30.555Z,7.30
2024-05-09T18:03:58.146Z,7.53
2024-05-09T18:06:25.731Z,8.00
2024-05-09T18:08:53.149Z,8.33
2024-05-09T18:11:20.699Z,8.10
2024-05-09T18:13:50.820Z,8.37
2024-05-09T18:16:18.886Z,8.57
2024-05-09T18:18:46.598Z,8.03
2024-05-09T18:21:14.120Z,7.30
2024-05-09T18:23:41.522Z,7.83
2024-05-09T18:26:09.078Z,8.43
2024-05-09T18:28:36.577Z,8.40
2024-05-09T18:31:06.794Z,8.43
2024-05-09T18:33:34.602Z,9.10
2024-05-09T18:36:20.408Z,8.17
2024-05-09T18:38:48.024Z,8.57
2024-05-09T18:41:15.586Z,8.73
2024-05-09T18:43:45.426Z,9.73
2024-05-09T18:46:18.789Z,9.23
2024-05-09T18:48:46.413Z,8.97
2024-05-09T18:54:03.096Z,9.27
2024-05-09T18:56:30.603Z,9.73
2024-05-09T18:58:58.092Z,10.27
2024-05-09T19:01:28.404Z,10.03
2024-05-09T19:03:56.281Z,11.17
2024-05-09T19:06:46.074Z,10.57
2024-05-09T19:09:19.663Z,12.07
2024-05-09T19:11:52.290Z,10.20
2024-05-09T19:14:19.775Z,10.97
2024-05-09T19:16:49.802Z,11.20
2024-05-09T19:19:17.522Z,11.40
2024-05-09T19:22:04.044Z,10.07
2024-05-09T19:24:31.541Z,10.10
2024-05-09T19:26:59.012Z,9.83
2024-05-09T19:29:26.433Z,10.47
2024-05-09T19:31:56.591Z,10.17
2024-05-09T19:34:24.178Z,9.70
2024-05-09T19:36:58.188Z,10.40
2024-05-09T19:39:25.671Z,10.10
2024-05-09T19:41:53.096Z,9.60
2024-05-09T19:44:21.189Z,9.73
2024-05-09T19:47:14.132Z,9.17
2024-05-09T19:53:20.679Z,9.40
2024-05-09T19:55:48.226Z,10.13
2024-05-09T19:58:15.741Z,8.90
2024-05-09T20:00:44.531Z,8.87
2024-05-09T20:03:13.066Z,8.57
2024-05-09T20:05:47.380Z,8.63
2024-05-09T20:08:15.152Z,8.03
2024-05-09T20:10:45.371Z,8.00
2024-05-09T20:13:12.997Z,7.57
2024-05-09T20:15:40.546Z,7.80
2024-05-09T20:18:08.422Z,7.97
2024-05-09T20:20:40.091Z,8.53
2024-05-09T20:23:14.186Z,8.90
2024-05-09T20:25:42.388Z,8.97
2024-05-09T20:28:12.616Z,8.77
2024-05-09T20:30:40.238Z,8.60
2024-05-09T20:33:09.090Z,7.90
2024-05-09T20:35:37.440Z,7.87
2024-05-09T20:38:05.326Z,8.17
2024-05-09T20:40:36.483Z,9.00
2024-05-09T20:43:07.043Z,8.50
2024-05-09T20:45:37.631Z,9.47
2024-05-09T20:48:05.687Z,7.87
2024-05-09T20:50:53.192Z,7.43
2024-05-09T20:53:20.712Z,8.57
2024-05-09T20:55:48.216Z,9.00
2024-05-09T20:58:15.714Z,7.63
2024-05-09T21:00:46.560Z,8.27
2024-05-09T21:03:15.947Z,9.13
2024-05-09T21:05:53.813Z,9.90
2024-05-09T21:08:22.329Z,8.90
2024-05-09T21:10:50.801Z,9.93
2024-05-09T21:13:18.405Z,10.73
2024-05-09T21:15:48.801Z,10.00
2024-05-09T21:18:38.439Z,9.80
2024-05-09T21:21:06.441Z,11.40
2024-05-09T21:23:33.888Z,11.30
2024-05-09T21:26:01.328Z,11.03
2024-05-09T21:28:28.857Z,11.20
2024-05-09T21:30:59.045Z,10.97
2024-05-09T21:33:26.615Z,12.83
2024-05-09T21:38:43.589Z,11.30
2024-05-09T21:41:11.067Z,12.43
2024-05-09T21:43:38.704Z,12.53
2024-05-09T21:46:08.795Z,11.90
2024-05-09T21:52:16.343Z,12.80
2024-05-09T21:54:43.904Z,12.83
2024-05-09T21:57:11.445Z,12.07
2024-05-09T21:59:38.865Z,12.63
2024-05-09T22:02:09.221Z,13.63
2024-05-09T22:04:36.896Z,12.43
2024-05-09T22:07:04.853Z,13.73
2024-05-09T22:09:32.489Z,12.07
2024-05-09T22:12:00.010Z,12.17
2024-05-09T22:14:27.559Z,12.37
2024-05-09T22:16:55.082Z,13.70
2024-05-09T22:19:25.664Z,13.83
2024-05-09T22:21:53.222Z,13.10
2024-05-09T22:24:21.083Z,12.90
2024-05-09T22:26:53.883Z,13.67
2024-05-09T22:29:21.345Z,13.30
2024-05-09T22:31:48.759Z,14.63
2024-05-09T22:34:16.283Z,15.57
2024-05-09T22:36:46.492Z,13.70
2024-05-09T22:39:14.001Z,15.47
2024-05-09T22:41:47.323Z,14.53
2024-05-09T22:44:14.791Z,14.67
2024-05-09T22:46:43.111Z,14.87
2024-05-09T22:49:10.692Z,14.97
2024-05-09T22:55:17.370Z,14.77
2024-05-09T22:57:44.915Z,14.43
2024-05-09T23:00:15.951Z,14.60
2024-05-09T23:02:43.824Z,13.87
2024-05-09T23:05:11.548Z,13.40
2024-05-09T23:07:39.167Z,15.20
2024-05-09T23:13:01.029Z,13.53
2024-05-09T23:15:28.626Z,15.23
2024-05-09T23:17:56.258Z,14.33
2024-05-09T23:20:33.395Z,15.20
2024-05-09T23:26:18.912Z,16.07
2024-05-09T23:28:49.367Z,14.10
2024-05-09T23:31:16.916Z,16.03
2024-05-09T23:33:46.127Z,16.03
2024-05-09T23:36:13.811Z,14.67
2024-05-09T23:38:41.803Z,15.40
2024-05-09T23:41:09.353Z,13.47
2024-05-09T23:43:36.817Z,14.30
2024-05-09T23:46:06.913Z,13.83
2024-05-09T23:48:34.608Z,14.33
2024-05-09T23:51:07.051Z,14.33
2024-05-09T23:53:50.008Z,14.57
2024-05-09T23:56:17.779Z,15.37
2024-05-09T23:58:45.270Z,14.33
